Time;durP1;ratioP1;P1;durP2;ratioP2;P2;SDS_P1;SDS_P2;PMS_P1;PMS_P2;Temp;Humidity;BMP_temperature;BMP_pressure;BME280_temperature;BME280_humidity;BME280_pressure;Samples;Min_cycle;Max_cycle;Signal;HPM_P1;HPM_P2
2021/08/18 00:04:11;;;;;;;2.53;0.93;;;23.60;99.90;;;;;;20610168;28;20220;-83
2021/08/18 00:14:15;;;;;;;0.60;0.60;;;23.70;99.90;;;;;;20583262;28;20575;-82
2021/08/18 00:24:20;;;;;;;1.45;1.27;;;23.80;99.90;;;;;;20587576;28;20208;-82
2021/08/18 00:34:26;;;;;;;1.33;0.83;;;24.00;99.90;;;;;;20559289;28;20227;-82
2021/08/18 00:44:34;;;;;;;0.70;0.60;;;23.80;99.90;;;;;;20604374;28;20223;-80
2021/08/18 00:54:37;;;;;;;0.93;0.60;;;23.70;99.90;;;;;;20619616;28;20291;-88
2021/08/18 01:04:43;;;;;;;0.97;0.53;;;23.80;99.90;;;;;;20618744;28;20195;-80
2021/08/18 01:14:47;;;;;;;1.00;0.47;;;23.80;99.90;;;;;;20619749;28;20322;-82
2021/08/18 01:24:52;;;;;;;0.80;0.37;;;23.80;99.90;;;;;;20617316;28;20205;-81
2021/08/18 01:34:57;;;;;;;1.77;0.93;;;23.80;99.90;;;;;;20611525;28;20452;-82
2021/08/18 01:45:03;;;;;;;1.03;0.47;;;23.80;99.90;;;;;;20627625;28;20310;-81
2021/08/18 01:55:08;;;;;;;0.33;0.27;;;23.80;99.90;;;;;;20613986;28;21009;-82
2021/08/18 02:05:13;;;;;;;1.00;0.60;;;23.60;99.90;;;;;;20620730;28;20198;-81
2021/08/18 02:15:21;;;;;;;0.77;0.57;;;23.50;99.90;;;;;;20629004;28;20326;-82
2021/08/18 02:25:26;;;;;;;1.97;0.80;;;23.60;99.90;;;;;;20642053;28;20210;-82
2021/08/18 02:35:31;;;;;;;0.87;0.43;;;23.40;99.90;;;;;;20619335;28;20219;-82
2021/08/18 02:45:34;;;;;;;2.13;0.43;;;23.40;99.90;;;;;;20622783;28;20254;-84
2021/08/18 02:55:40;;;;;;;2.17;0.40;;;23.40;99.90;;;;;;20617321;28;20266;-81
2021/08/18 03:05:43;;;;;;;3.90;2.50;;;23.30;99.90;;;;;;20617967;28;21006;-80
2021/08/18 03:15:49;;;;;;;4.00;0.63;;;23.30;99.90;;;;;;20569459;28;20863;-80
2021/08/18 03:25:52;;;;;;;0.30;0.30;;;23.50;99.90;;;;;;20591246;28;20199;-79
2021/08/18 03:35:58;;;;;;;4.73;0.87;;;23.50;99.90;;;;;;20583488;28;20688;-78
2021/08/18 03:46:02;;;;;;;7.37;1.00;;;23.40;99.90;;;;;;20539116;28;20282;-80
2021/08/18 03:56:07;;;;;;;0.50;0.43;;;23.40;99.90;;;;;;20538372;28;20231;-79
2021/08/18 04:06:11;;;;;;;0.60;0.60;;;23.00;99.90;;;;;;20610290;28;20199;-79
2021/08/18 04:16:16;;;;;;;3.17;0.90;;;23.00;99.90;;;;;;20613175;28;20226;-80
2021/08/18 04:26:19;;;;;;;1.83;1.13;;;22.90;99.90;;;;;;20620286;28;20671;-79
2021/08/18 04:36:24;;;;;;;0.57;0.47;;;22.70;99.90;;;;;;20619321;28;20246;-81
2021/08/18 04:46:28;;;;;;;1.47;0.53;;;22.60;99.90;;;;;;20619290;28;20596;-80
2021/08/18 04:56:33;;;;;;;0.50;0.50;;;22.50;99.90;;;;;;20639067;28;20223;-81
2021/08/18 05:06:37;;;;;;;3.87;0.80;;;22.20;99.90;;;;;;20627384;28;20195;-77
2021/08/18 05:16:42;;;;;;;0.43;0.43;;;22.10;99.90;;;;;;20623007;28;20219;-81
2021/08/18 05:26:46;;;;;;;0.90;0.90;;;21.90;99.90;;;;;;20637228;28;20191;-81
2021/08/18 05:36:51;;;;;;;4.53;1.80;;;21.90;99.90;;;;;;20632809;28;21066;-82
2021/08/18 05:46:55;;;;;;;1.97;1.77;;;21.90;99.90;;;;;;20628885;28;20227;-80
2021/08/18 05:57:00;;;;;;;2.20;1.60;;;21.90;99.90;;;;;;20629975;28;20227;-80
2021/08/18 06:07:04;;;;;;;1.77;0.90;;;21.80;99.90;;;;;;20628114;28;20281;-79
2021/08/18 06:17:09;;;;;;;3.17;1.13;;;21.90;99.90;;;;;;20648504;28;20736;-83
2021/08/18 06:27:14;;;;;;;6.07;1.60;;;22.00;99.90;;;;;;20631083;28;20318;-88
2021/08/18 06:37:20;;;;;;;1.07;0.60;;;22.10;99.90;;;;;;20635410;28;20285;-78
2021/08/18 06:47:25;;;;;;;1.03;0.60;;;22.40;99.90;;;;;;20627159;28;20234;-79
2021/08/18 06:57:30;;;;;;;4.43;1.27;;;22.60;99.90;;;;;;20631646;28;20219;-80
2021/08/18 07:07:34;;;;;;;4.80;1.43;;;22.80;99.90;;;;;;20620309;28;20192;-81
2021/08/18 07:17:39;;;;;;;2.73;1.10;;;23.20;99.90;;;;;;20623668;28;20610;-83
2021/08/18 07:27:43;;;;;;;1.07;0.97;;;23.20;99.90;;;;;;20620208;28;20668;-75
2021/08/18 07:37:50;;;;;;;1.30;1.20;;;23.40;99.90;;;;;;20624937;28;20237;-75
2021/08/18 07:48:04;;;;;;;29.35;3.47;;;23.70;99.90;;;;;;20716239;28;20297;-77
2021/08/18 07:58:12;;;;;;;2.80;1.33;;;24.10;99.90;;;;;;20781746;28;20228;-82
2021/08/18 08:08:15;;;;;;;10.90;1.50;;;24.50;99.90;;;;;;20780690;28;20664;-80
2021/08/18 08:18:22;;;;;;;1.00;0.80;;;24.60;99.90;;;;;;20783051;28;20276;-81
2021/08/18 08:28:26;;;;;;;1.85;1.15;;;25.00;99.90;;;;;;20735681;28;20198;-86
2021/08/18 08:38:32;;;;;;;6.55;1.20;;;25.10;99.90;;;;;;20760628;28;20757;-86
2021/08/18 08:48:40;;;;;;;2.35;1.33;;;26.00;99.90;;;;;;20773909;28;20232;-77
2021/08/18 08:59:10;;;;;;;3.28;1.30;;;26.30;99.90;;;;;;20770708;28;20340;-74
2021/08/18 09:09:13;;;;;;;8.45;1.70;;;26.70;99.90;;;;;;20766604;28;20186;-77
2021/08/18 09:19:19;;;;;;;2.95;1.42;;;26.60;99.90;;;;;;20775600;28;20222;-71
2021/08/18 09:29:32;;;;;;;5.13;1.95;;;27.50;99.90;;;;;;20702534;28;20191;-75
2021/08/18 09:39:37;;;;;;;3.85;1.67;;;26.90;99.90;;;;;;20691206;28;20395;-76
2021/08/18 09:49:42;;;;;;;4.32;1.35;;;26.80;99.90;;;;;;20753746;28;20581;-76
2021/08/18 09:59:48;;;;;;;5.43;1.30;;;27.00;99.90;;;;;;20754036;28;20278;-77
2021/08/18 10:09:51;;;;;;;2.38;1.40;;;26.90;99.90;;;;;;20787503;28;20201;-76
2021/08/18 10:19:57;;;;;;;2.60;1.30;;;26.90;99.90;;;;;;20786074;28;20758;-77
2021/08/18 10:30:23;;;;;;;4.70;1.40;;;27.20;99.90;;;;;;20788199;28;20277;-76
2021/08/18 10:40:35;;;;;;;4.40;2.38;;;27.30;99.90;;;;;;20768293;28;20234;-76
2021/08/18 10:50:42;;;;;;;3.05;1.73;;;27.30;99.90;;;;;;20788663;28;20300;-81
2021/08/18 11:00:47;;;;;;;4.00;1.52;;;27.50;99.90;;;;;;20758378;28;20273;-77
2021/08/18 11:11:16;;;;;;;1.92;1.20;;;27.80;99.90;;;;;;20783535;28;20666;-78
2021/08/18 11:21:25;;;;;;;4.57;1.33;;;28.30;99.90;;;;;;20783546;28;20544;-77
2021/08/18 11:31:37;;;;;;;3.15;1.58;;;29.30;99.90;;;;;;20783954;28;20237;-86
2021/08/18 11:41:45;;;;;;;3.75;1.50;;;29.60;99.90;;;;;;20760565;28;20217;-85
2021/08/18 11:51:49;;;;;;;1.88;1.25;;;30.20;99.90;;;;;;20780167;28;20688;-77
2021/08/18 12:01:56;;;;;;;3.80;1.65;;;30.30;99.90;;;;;;20757619;28;20639;-83
2021/08/18 12:12:07;;;;;;;1.77;1.35;;;31.00;99.90;;;;;;20777574;28;20198;-77
2021/08/18 12:22:15;;;;;;;3.53;1.77;;;31.00;99.90;;;;;;20770441;28;20297;-79
2021/08/18 12:32:23;;;;;;;4.68;2.00;;;31.20;99.90;;;;;;20775446;28;20187;-81
2021/08/18 12:42:30;;;;;;;4.65;1.48;;;31.10;99.90;;;;;;20773498;28;20586;-77
2021/08/18 12:52:34;;;;;;;6.47;1.80;;;30.70;99.90;;;;;;20757570;28;20213;-78
2021/08/18 13:02:39;;;;;;;9.85;2.60;;;30.80;99.90;;;;;;20811174;28;20229;-80
2021/08/18 13:12:43;;;;;;;3.53;2.38;;;32.40;99.90;;;;;;20779733;28;20285;-83
2021/08/18 13:22:49;;;;;;;2.25;1.48;;;32.50;99.90;;;;;;20757418;28;20233;-77
2021/08/18 13:32:53;;;;;;;3.72;2.20;;;33.10;99.90;;;;;;20773543;28;20285;-81
2021/08/18 13:43:03;;;;;;;2.67;1.50;;;32.30;99.90;;;;;;20785117;28;20242;-77
2021/08/18 13:53:07;;;;;;;5.15;1.13;;;32.40;99.90;;;;;;20781640;28;20603;-78
2021/08/18 14:03:14;;;;;;;6.57;2.17;;;32.90;99.90;;;;;;20762858;28;20230;-80
2021/08/18 14:13:18;;;;;;;4.78;1.83;;;33.70;99.90;;;;;;20705236;28;20641;-78
2021/08/18 14:23:28;;;;;;;2.70;1.25;;;34.10;99.90;;;;;;20771635;28;20268;-76
2021/08/18 14:33:41;;;;;;;3.33;1.27;;;34.10;99.90;;;;;;20789964;28;20213;-84
2021/08/18 14:44:00;;;;;;;8.70;2.13;;;33.90;99.90;;;;;;20788673;28;20324;-82
2021/08/18 14:54:07;;;;;;;4.38;2.75;;;34.20;99.90;;;;;;20754599;28;20667;-81
2021/08/18 15:04:12;;;;;;;4.78;1.98;;;34.70;99.90;;;;;;20764829;28;20228;-78
2021/08/18 15:14:16;;;;;;;3.03;1.85;;;34.00;99.90;;;;;;20789603;28;20275;-81
2021/08/18 15:24:24;;;;;;;4.20;3.28;;;34.70;99.90;;;;;;20784170;28;20221;-82
2021/08/18 15:34:36;;;;;;;6.65;2.08;;;33.30;99.90;;;;;;20766860;28;20706;-78
2021/08/18 15:45:08;;;;;;;2.00;1.40;;;31.10;99.90;;;;;;20785045;28;20547;-82
2021/08/18 15:55:44;;;;;;;4.30;1.50;;;29.60;99.90;;;;;;20765164;28;20205;-75
2021/08/18 16:06:26;;;;;;;2.42;1.33;;;29.20;99.90;;;;;;20730171;28;20225;-79
2021/08/18 16:16:55;;;;;;;3.58;1.67;;;29.50;99.90;;;;;;20762058;28;20225;-76
2021/08/18 16:27:01;;;;;;;4.78;2.70;;;28.80;99.90;;;;;;20780711;28;20205;-77
2021/08/18 16:37:08;;;;;;;1.67;1.48;;;28.60;99.90;;;;;;20779729;28;20232;-79
2021/08/18 16:47:24;;;;;;;1.88;1.40;;;28.50;99.90;;;;;;20780086;28;20589;-87
2021/08/18 16:57:30;;;;;;;3.58;1.48;;;28.30;99.90;;;;;;20781042;28;20218;-81
2021/08/18 17:07:35;;;;;;;4.43;1.90;;;28.00;99.90;;;;;;20781523;28;20681;-79
2021/08/18 17:17:40;;;;;;;5.20;2.15;;;27.70;99.90;;;;;;20778977;28;20805;-80
2021/08/18 17:27:46;;;;;;;1.83;1.55;;;28.30;99.90;;;;;;20765805;28;20198;-79
2021/08/18 17:37:50;;;;;;;3.33;1.92;;;27.40;99.90;;;;;;20778121;28;20698;-80
2021/08/18 17:58:15;;;;;;;2.25;1.30;;;27.20;99.90;;;;;;22098244;23;20241;-73
2021/08/18 18:08:19;;;;;;;3.15;1.83;;;26.90;99.90;;;;;;20787407;28;20198;-71
2021/08/18 18:18:24;;;;;;;1.92;1.73;;;26.30;99.90;;;;;;20767728;28;20222;-74
2021/08/18 18:28:28;;;;;;;4.68;1.63;;;26.20;99.90;;;;;;20764007;28;20194;-71
2021/08/18 18:38:33;;;;;;;2.60;1.55;;;26.20;99.90;;;;;;20724618;28;20215;-72
2021/08/18 18:48:37;;;;;;;2.78;1.20;;;26.20;99.90;;;;;;20702871;28;20199;-72
2021/08/18 18:58:42;;;;;;;4.45;2.03;;;26.00;99.90;;;;;;20761603;28;20786;-70
2021/08/18 19:08:47;;;;;;;5.60;1.83;;;25.80;99.90;;;;;;20775399;28;20191;-73
2021/08/18 19:18:53;;;;;;;3.60;1.83;;;25.70;99.90;;;;;;20778647;28;20225;-72
2021/08/18 19:28:57;;;;;;;2.83;1.38;;;25.40;99.90;;;;;;20781574;28;20270;-71
2021/08/18 19:39:03;;;;;;;1.30;1.15;;;25.60;99.90;;;;;;20716983;28;20231;-73
2021/08/18 19:49:06;;;;;;;0.95;0.80;;;25.50;99.90;;;;;;20700588;28;20237;-73
2021/08/18 19:59:12;;;;;;;2.40;1.10;;;25.40;99.90;;;;;;20714068;28;20234;-71
2021/08/18 20:09:16;;;;;;;3.45;1.52;;;25.30;99.90;;;;;;20780571;28;20894;-71
2021/08/18 20:19:21;;;;;;;2.15;1.58;;;25.20;99.90;;;;;;20777195;28;20681;-72
2021/08/18 20:29:25;;;;;;;7.22;2.03;;;25.10;99.90;;;;;;20712137;28;20599;-72
2021/08/18 20:39:30;;;;;;;5.07;2.10;;;25.00;99.90;;;;;;20743054;28;20559;-71
2021/08/18 20:49:34;;;;;;;4.28;1.58;;;24.70;99.90;;;;;;20775615;28;20202;-70
2021/08/18 20:59:38;;;;;;;2.97;1.70;;;24.80;99.90;;;;;;20747368;28;20356;-72
2021/08/18 21:09:42;;;;;;;0.52;0.52;;;24.70;99.90;;;;;;20757940;28;20264;-70
2021/08/18 21:19:48;;;;;;;3.72;1.27;;;24.50;99.90;;;;;;20774568;28;20245;-72
2021/08/18 21:29:53;;;;;;;7.78;1.73;;;24.30;99.90;;;;;;20776179;28;20222;-71
2021/08/18 21:39:58;;;;;;;6.50;0.75;;;24.30;99.90;;;;;;20750307;28;20667;-72
2021/08/18 21:50:02;;;;;;;8.25;1.85;;;24.30;99.90;;;;;;20740304;28;20204;-72
2021/08/18 22:00:10;;;;;;;1.80;1.00;;;24.00;99.90;;;;;;20781176;28;20230;-73
2021/08/18 22:10:14;;;;;;;1.67;1.40;;;23.90;99.90;;;;;;20787301;28;20194;-73
2021/08/18 22:20:20;;;;;;;4.00;1.70;;;23.90;99.90;;;;;;20788843;28;20698;-75
2021/08/18 22:30:23;;;;;;;2.03;1.00;;;23.80;99.90;;;;;;20785326;28;20198;-72
2021/08/18 22:40:28;;;;;;;2.20;1.93;;;23.30;99.90;;;;;;20820418;23;20237;-73
2021/08/18 22:50:32;;;;;;;4.00;2.23;;;23.20;99.90;;;;;;20829801;28;20549;-72
2021/08/18 23:00:37;;;;;;;2.13;1.23;;;23.10;99.90;;;;;;20832791;28;20226;-75
2021/08/18 23:10:41;;;;;;;0.57;0.47;;;22.70;99.90;;;;;;22415167;22;20584;-80
2021/08/18 23:20:46;;;;;;;2.47;1.80;;;22.60;99.90;;;;;;20739864;28;20571;-80
2021/08/18 23:30:50;;;;;;;2.07;1.07;;;22.50;99.90;;;;;;20723619;28;20326;-83
2021/08/18 23:40:55;;;;;;;1.53;1.13;;;22.50;99.90;;;;;;20684090;28;20229;-85
2021/08/18 23:50:59;;;;;;;0.93;0.90;;;22.40;99.90;;;;;;20685180;28;20207;-82
